sensor_id;sensor_type;location;lat;lon;timestamp;P1;durP1;ratioP1;P2;durP2;ratioP2
81231;SDS011;70703;55.652;37.710;2023-06-14T14:39:34;7.35;;;3.55;;
81231;SDS011;70703;55.652;37.710;2023-06-14T14:39:48;7.85;;;3.75;;
81231;SDS011;70703;55.652;37.710;2023-06-14T14:39:59;8.30;;;3.80;;
81231;SDS011;70703;55.652;37.710;2023-06-14T14:40:11;9.85;;;3.95;;
81231;SDS011;70703;55.652;37.710;2023-06-14T14:40:23;27.00;;;4.53;;
81231;SDS011;70703;55.652;37.710;2023-06-14T14:40:34;28.02;;;4.30;;
81231;SDS011;70703;55.652;37.710;2023-06-14T14:40:45;23.33;;;4.50;;
81231;SDS011;70703;55.652;37.710;2023-06-14T14:40:56;15.23;;;3.60;;
81231;SDS011;70703;55.652;37.710;2023-06-14T14:41:08;12.63;;;3.40;;
81231;SDS011;70703;55.652;37.710;2023-06-14T14:41:19;10.07;;;3.35;;
81231;SDS011;70703;55.652;37.710;2023-06-14T14:41:31;9.02;;;3.35;;
81231;SDS011;70703;55.652;37.710;2023-06-14T14:41:42;8.55;;;3.35;;
81231;SDS011;70703;55.652;37.710;2023-06-14T14:41:53;7.72;;;3.20;;
81231;SDS011;70703;55.652;37.710;2023-06-14T14:42:04;8.00;;;3.10;;
81231;SDS011;70703;55.652;37.710;2023-06-14T14:42:18;8.32;;;3.17;;
81231;SDS011;70703;55.652;37.710;2023-06-14T14:42:30;7.97;;;3.20;;
81231;SDS011;70703;55.652;37.710;2023-06-14T14:42:41;8.18;;;3.22;;
81231;SDS011;70703;55.652;37.710;2023-06-14T14:42:52;10.15;;;3.25;;
81231;SDS011;70703;55.652;37.710;2023-06-14T14:43:03;10.35;;;3.42;;
81231;SDS011;70703;55.652;37.710;2023-06-14T14:43:15;9.02;;;3.40;;
81231;SDS011;70703;55.652;37.710;2023-06-14T14:43:26;8.35;;;3.30;;
81231;SDS011;70703;55.652;37.710;2023-06-14T14:43:40;7.53;;;3.10;;
81231;SDS011;70703;55.652;37.710;2023-06-14T14:43:52;7.50;;;3.20;;
81231;SDS011;70703;55.652;37.710;2023-06-14T14:44:04;8.07;;;3.20;;
81231;SDS011;70703;55.652;37.710;2023-06-14T14:44:15;8.88;;;3.50;;
81231;SDS011;70703;55.652;37.710;2023-06-14T14:44:27;9.20;;;3.55;;
81231;SDS011;70703;55.652;37.710;2023-06-14T14:44:38;9.38;;;3.50;;
81231;SDS011;70703;55.652;37.710;2023-06-14T14:44:50;8.38;;;3.10;;
81231;SDS011;70703;55.652;37.710;2023-06-14T14:45:01;6.82;;;3.00;;
81231;SDS011;70703;55.652;37.710;2023-06-14T14:45:13;6.50;;;3.10;;
81231;SDS011;70703;55.652;37.710;2023-06-14T14:45:24;7.82;;;3.30;;
81231;SDS011;70703;55.652;37.710;2023-06-14T14:45:35;8.15;;;3.28;;
81231;SDS011;70703;55.652;37.710;2023-06-14T14:45:47;8.40;;;3.47;;
81231;SDS011;70703;55.652;37.710;2023-06-14T14:45:58;7.38;;;3.42;;
81231;SDS011;70703;55.652;37.710;2023-06-14T14:46:09;8.48;;;3.30;;
81231;SDS011;70703;55.652;37.710;2023-06-14T14:46:21;6.88;;;2.97;;
81231;SDS011;70703;55.652;37.710;2023-06-14T14:46:32;7.32;;;3.08;;
81231;SDS011;70703;55.652;37.710;2023-06-14T14:46:43;8.18;;;3.20;;
81231;SDS011;70703;55.652;37.710;2023-06-14T14:46:55;9.18;;;3.22;;
81231;SDS011;70703;55.652;37.710;2023-06-14T14:47:06;8.40;;;3.17;;
81231;SDS011;70703;55.652;37.710;2023-06-14T14:47:17;8.25;;;3.10;;
81231;SDS011;70703;55.652;37.710;2023-06-14T14:47:28;9.82;;;3.30;;
81231;SDS011;70703;55.652;37.710;2023-06-14T14:47:40;9.13;;;3.40;;
81231;SDS011;70703;55.652;37.710;2023-06-14T14:47:51;7.28;;;3.53;;
81231;SDS011;70703;55.652;37.710;2023-06-14T14:48:03;10.18;;;3.75;;
81231;SDS011;70703;55.652;37.710;2023-06-14T14:48:14;12.75;;;3.72;;
81231;SDS011;70703;55.652;37.710;2023-06-14T14:48:25;14.38;;;3.80;;
81231;SDS011;70703;55.652;37.710;2023-06-14T14:48:36;8.75;;;3.40;;
81231;SDS011;70703;55.652;37.710;2023-06-14T14:48:47;6.78;;;3.22;;
81231;SDS011;70703;55.652;37.710;2023-06-14T14:48:59;9.48;;;3.25;;
81231;SDS011;70703;55.652;37.710;2023-06-14T14:49:11;11.63;;;3.17;;
81231;SDS011;70703;55.652;37.710;2023-06-14T14:49:22;10.85;;;3.28;;
81231;SDS011;70703;55.652;37.710;2023-06-14T14:49:33;7.80;;;3.20;;
81231;SDS011;70703;55.652;37.710;2023-06-14T14:49:44;8.40;;;3.10;;
81231;SDS011;70703;55.652;37.710;2023-06-14T14:49:55;10.63;;;3.20;;
81231;SDS011;70703;55.652;37.710;2023-06-14T14:50:06;10.55;;;3.30;;
81231;SDS011;70703;55.652;37.710;2023-06-14T14:50:19;7.82;;;3.45;;
81231;SDS011;70703;55.652;37.710;2023-06-14T14:50:31;8.50;;;3.75;;
81231;SDS011;70703;55.652;37.710;2023-06-14T14:50:42;8.38;;;3.67;;
81231;SDS011;70703;55.652;37.710;2023-06-14T14:50:53;8.23;;;3.42;;
81231;SDS011;70703;55.652;37.710;2023-06-14T14:51:06;9.80;;;3.58;;
81231;SDS011;70703;55.652;37.710;2023-06-14T14:51:18;11.07;;;3.47;;
81231;SDS011;70703;55.652;37.710;2023-06-14T14:51:30;8.98;;;3.20;;
81231;SDS011;70703;55.652;37.710;2023-06-14T14:51:41;8.30;;;3.20;;
81231;SDS011;70703;55.652;37.710;2023-06-14T14:51:52;9.45;;;3.50;;
81231;SDS011;70703;55.652;37.710;2023-06-14T14:52:03;10.10;;;3.42;;
81231;SDS011;70703;55.652;37.710;2023-06-14T14:52:15;9.40;;;3.30;;
81231;SDS011;70703;55.652;37.710;2023-06-14T14:52:26;9.85;;;3.28;;
81231;SDS011;70703;55.652;37.710;2023-06-14T14:52:37;12.27;;;3.33;;
81231;SDS011;70703;55.652;37.710;2023-06-14T14:52:49;13.75;;;3.50;;
81231;SDS011;70703;55.652;37.710;2023-06-14T14:53:00;12.00;;;3.53;;
81231;SDS011;70703;55.652;37.710;2023-06-14T14:53:26;12.98;;;3.38;;
81231;SDS011;70703;55.652;37.710;2023-06-14T14:53:37;11.75;;;3.50;;
81231;SDS011;70703;55.652;37.710;2023-06-14T14:53:49;12.85;;;3.70;;
81231;SDS011;70703;55.652;37.710;2023-06-14T14:54:01;17.10;;;3.60;;
81231;SDS011;70703;55.652;37.710;2023-06-14T14:54:12;17.42;;;3.53;;
81231;SDS011;70703;55.652;37.710;2023-06-14T14:54:23;16.17;;;3.75;;
81231;SDS011;70703;55.652;37.710;2023-06-14T14:54:37;14.05;;;3.90;;
81231;SDS011;70703;55.652;37.710;2023-06-14T14:54:48;14.93;;;3.90;;
81231;SDS011;70703;55.652;37.710;2023-06-14T14:54:59;13.63;;;3.60;;
81231;SDS011;70703;55.652;37.710;2023-06-14T14:55:11;14.98;;;3.50;;
81231;SDS011;70703;55.652;37.710;2023-06-14T14:55:22;12.20;;;3.20;;
81231;SDS011;70703;55.652;37.710;2023-06-14T14:55:33;9.55;;;3.10;;
81231;SDS011;70703;55.652;37.710;2023-06-14T14:55:47;10.65;;;3.28;;
81231;SDS011;70703;55.652;37.710;2023-06-14T14:55:59;11.35;;;3.40;;
81231;SDS011;70703;55.652;37.710;2023-06-14T14:56:11;9.98;;;3.50;;
81231;SDS011;70703;55.652;37.710;2023-06-14T14:56:22;9.00;;;3.55;;
81231;SDS011;70703;55.652;37.710;2023-06-14T14:56:33;9.27;;;3.90;;
81231;SDS011;70703;55.652;37.710;2023-06-14T14:56:45;8.15;;;3.85;;
81231;SDS011;70703;55.652;37.710;2023-06-14T14:56:56;9.80;;;3.80;;
81231;SDS011;70703;55.652;37.710;2023-06-14T14:57:07;9.70;;;3.38;;
81231;SDS011;70703;55.652;37.710;2023-06-14T14:57:19;10.45;;;3.30;;
81231;SDS011;70703;55.652;37.710;2023-06-14T14:57:31;10.32;;;3.40;;
81231;SDS011;70703;55.652;37.710;2023-06-14T14:57:43;11.60;;;3.58;;
81231;SDS011;70703;55.652;37.710;2023-06-14T14:57:54;11.60;;;3.63;;
81231;SDS011;70703;55.652;37.710;2023-06-14T14:58:05;11.55;;;3.47;;
81231;SDS011;70703;55.652;37.710;2023-06-14T14:58:17;8.18;;;3.30;;
81231;SDS011;70703;55.652;37.710;2023-06-14T14:58:30;7.25;;;3.33;;
81231;SDS011;70703;55.652;37.710;2023-06-14T14:58:41;8.10;;;3.47;;
81231;SDS011;70703;55.652;37.710;2023-06-14T14:58:52;11.57;;;3.67;;
81231;SDS011;70703;55.652;37.710;2023-06-14T14:59:04;11.95;;;3.40;;
81231;SDS011;70703;55.652;37.710;2023-06-14T14:59:15;16.20;;;3.42;;
81231;SDS011;70703;55.652;37.710;2023-06-14T14:59:28;17.30;;;3.42;;
81231;SDS011;70703;55.652;37.710;2023-06-14T14:59:40;17.73;;;3.53;;
81231;SDS011;70703;55.652;37.710;2023-06-14T14:59:51;8.60;;;3.40;;
81231;SDS011;70703;55.652;37.710;2023-06-14T15:00:02;9.23;;;3.20;;
81231;SDS011;70703;55.652;37.710;2023-06-14T15:00:15;10.93;;;3.30;;
81231;SDS011;70703;55.652;37.710;2023-06-14T15:00:26;13.15;;;3.47;;
81231;SDS011;70703;55.652;37.710;2023-06-14T15:00:41;12.60;;;3.63;;
81231;SDS011;70703;55.652;37.710;2023-06-14T15:00:55;11.55;;;3.80;;
81231;SDS011;70703;55.652;37.710;2023-06-14T15:01:11;8.25;;;3.47;;
81231;SDS011;70703;55.652;37.710;2023-06-14T15:01:28;7.35;;;3.28;;
81231;SDS011;70703;55.652;37.710;2023-06-14T15:01:52;10.07;;;4.07;;
81231;SDS011;70703;55.652;37.710;2023-06-14T15:02:03;9.40;;;3.80;;
81231;SDS011;70703;55.652;37.710;2023-06-14T15:02:15;9.77;;;3.75;;
81231;SDS011;70703;55.652;37.710;2023-06-14T15:02:26;7.03;;;3.50;;
81231;SDS011;70703;55.652;37.710;2023-06-14T15:02:37;9.80;;;4.13;;
81231;SDS011;70703;55.652;37.710;2023-06-14T15:02:48;10.88;;;4.18;;
81231;SDS011;70703;55.652;37.710;2023-06-14T15:03:00;12.90;;;4.05;;
81231;SDS011;70703;55.652;37.710;2023-06-14T15:03:11;11.35;;;3.85;;
81231;SDS011;70703;55.652;37.710;2023-06-14T15:03:22;11.60;;;4.03;;
81231;SDS011;70703;55.652;37.710;2023-06-14T15:03:33;10.43;;;3.95;;
81231;SDS011;70703;55.652;37.710;2023-06-14T15:03:45;11.45;;;3.55;;
81231;SDS011;70703;55.652;37.710;2023-06-14T15:03:56;8.50;;;3.08;;
81231;SDS011;70703;55.652;37.710;2023-06-14T15:04:08;6.43;;;2.92;;
81231;SDS011;70703;55.652;37.710;2023-06-14T15:04:19;6.38;;;3.00;;
81231;SDS011;70703;55.652;37.710;2023-06-14T15:04:30;6.85;;;2.90;;
81231;SDS011;70703;55.652;37.710;2023-06-14T15:04:41;7.07;;;2.95;;
81231;SDS011;70703;55.652;37.710;2023-06-14T15:04:52;7.47;;;3.08;;
81231;SDS011;70703;55.652;37.710;2023-06-14T15:05:04;7.05;;;3.50;;
81231;SDS011;70703;55.652;37.710;2023-06-14T15:05:16;7.82;;;3.50;;
81231;SDS011;70703;55.652;37.710;2023-06-14T15:05:28;7.63;;;3.28;;
81231;SDS011;70703;55.652;37.710;2023-06-14T15:05:39;7.72;;;3.20;;
81231;SDS011;70703;55.652;37.710;2023-06-14T15:05:50;7.53;;;3.38;;
81231;SDS011;70703;55.652;37.710;2023-06-14T15:06:01;8.75;;;3.38;;
81231;SDS011;70703;55.652;37.710;2023-06-14T15:06:12;8.48;;;3.28;;
81231;SDS011;70703;55.652;37.710;2023-06-14T15:06:24;8.45;;;3.38;;
81231;SDS011;70703;55.652;37.710;2023-06-14T15:06:35;8.30;;;3.63;;
81231;SDS011;70703;55.652;37.710;2023-06-14T15:06:46;8.52;;;3.83;;
81231;SDS011;70703;55.652;37.710;2023-06-14T15:06:57;8.07;;;3.65;;
81231;SDS011;70703;55.652;37.710;2023-06-14T15:07:09;9.18;;;3.50;;
81231;SDS011;70703;55.652;37.710;2023-06-14T15:07:20;9.77;;;3.42;;
81231;SDS011;70703;55.652;37.710;2023-06-14T15:07:31;9.10;;;3.90;;
81231;SDS011;70703;55.652;37.710;2023-06-14T15:07:43;8.43;;;4.00;;
81231;SDS011;70703;55.652;37.710;2023-06-14T15:07:56;7.63;;;3.80;;
81231;SDS011;70703;55.652;37.710;2023-06-14T15:08:07;7.10;;;3.80;;
81231;SDS011;70703;55.652;37.710;2023-06-14T15:08:22;6.88;;;3.45;;
81231;SDS011;70703;55.652;37.710;2023-06-14T15:08:33;7.07;;;3.15;;
81231;SDS011;70703;55.652;37.710;2023-06-14T15:08:44;7.38;;;3.10;;
81231;SDS011;70703;55.652;37.710;2023-06-14T15:08:56;7.55;;;3.15;;
81231;SDS011;70703;55.652;37.710;2023-06-14T15:09:07;7.57;;;3.40;;
81231;SDS011;70703;55.652;37.710;2023-06-14T15:09:18;7.47;;;3.50;;
81231;SDS011;70703;55.652;37.710;2023-06-14T15:09:30;7.28;;;3.53;;
81231;SDS011;70703;55.652;37.710;2023-06-14T15:09:43;8.23;;;3.30;;
81231;SDS011;70703;55.652;37.710;2023-06-14T15:09:54;10.38;;;3.42;;
81231;SDS011;70703;55.652;37.710;2023-06-14T15:10:06;10.27;;;3.50;;
81231;SDS011;70703;55.652;37.710;2023-06-14T15:10:18;9.43;;;3.38;;
81231;SDS011;70703;55.652;37.710;2023-06-14T15:10:29;9.15;;;3.30;;
81231;SDS011;70703;55.652;37.710;2023-06-14T15:10:41;8.98;;;3.40;;
81231;SDS011;70703;55.652;37.710;2023-06-14T15:10:53;9.95;;;3.63;;
81231;SDS011;70703;55.652;37.710;2023-06-14T15:11:04;10.50;;;3.65;;
81231;SDS011;70703;55.652;37.710;2023-06-14T15:11:15;8.38;;;3.47;;
81231;SDS011;70703;55.652;37.710;2023-06-14T15:11:26;8.80;;;3.40;;
81231;SDS011;70703;55.652;37.710;2023-06-14T15:11:39;9.00;;;3.60;;
81231;SDS011;70703;55.652;37.710;2023-06-14T15:11:50;10.35;;;3.50;;
81231;SDS011;70703;55.652;37.710;2023-06-14T15:12:01;11.73;;;3.40;;
81231;SDS011;70703;55.652;37.710;2023-06-14T15:12:13;11.05;;;3.35;;
81231;SDS011;70703;55.652;37.710;2023-06-14T15:12:24;7.93;;;3.40;;
81231;SDS011;70703;55.652;37.710;2023-06-14T15:12:35;6.80;;;3.25;;
81231;SDS011;70703;55.652;37.710;2023-06-14T15:12:46;7.30;;;3.13;;
81231;SDS011;70703;55.652;37.710;2023-06-14T15:12:58;6.65;;;3.15;;
81231;SDS011;70703;55.652;37.710;2023-06-14T15:13:10;6.90;;;3.17;;
81231;SDS011;70703;55.652;37.710;2023-06-14T15:13:21;8.25;;;3.33;;
81231;SDS011;70703;55.652;37.710;2023-06-14T15:13:33;9.55;;;3.25;;
81231;SDS011;70703;55.652;37.710;2023-06-14T15:13:44;11.40;;;3.40;;
81231;SDS011;70703;55.652;37.710;2023-06-14T15:13:56;11.30;;;3.40;;
81231;SDS011;70703;55.652;37.710;2023-06-14T15:14:08;11.50;;;3.42;;
81231;SDS011;70703;55.652;37.710;2023-06-14T15:14:19;8.93;;;3.55;;
81231;SDS011;70703;55.652;37.710;2023-06-14T15:14:30;7.57;;;3.55;;
81231;SDS011;70703;55.652;37.710;2023-06-14T15:14:47;9.77;;;3.58;;
81231;SDS011;70703;55.652;37.710;2023-06-14T15:14:58;13.93;;;3.60;;
81231;SDS011;70703;55.652;37.710;2023-06-14T15:15:09;13.85;;;3.70;;
81231;SDS011;70703;55.652;37.710;2023-06-14T15:15:22;9.18;;;3.80;;
81231;SDS011;70703;55.652;37.710;2023-06-14T15:15:33;9.32;;;3.75;;
81231;SDS011;70703;55.652;37.710;2023-06-14T15:15:44;8.57;;;3.47;;
81231;SDS011;70703;55.652;37.710;2023-06-14T15:15:55;8.27;;;3.20;;
81231;SDS011;70703;55.652;37.710;2023-06-14T15:16:06;9.35;;;3.03;;
81231;SDS011;70703;55.652;37.710;2023-06-14T15:16:18;10.82;;;3.35;;
81231;SDS011;70703;55.652;37.710;2023-06-14T15:16:29;8.95;;;3.30;;
81231;SDS011;70703;55.652;37.710;2023-06-14T15:16:40;7.55;;;3.45;;
81231;SDS011;70703;55.652;37.710;2023-06-14T15:16:52;8.32;;;3.20;;
81231;SDS011;70703;55.652;37.710;2023-06-14T15:17:03;8.32;;;3.03;;
81231;SDS011;70703;55.652;37.710;2023-06-14T15:17:14;7.88;;;2.95;;
81231;SDS011;70703;55.652;37.710;2023-06-14T15:17:25;8.10;;;3.13;;
81231;SDS011;70703;55.652;37.710;2023-06-14T15:17:37;10.38;;;3.35;;
81231;SDS011;70703;55.652;37.710;2023-06-14T15:17:48;10.60;;;3.38;;
81231;SDS011;70703;55.652;37.710;2023-06-14T15:18:00;10.40;;;3.08;;
81231;SDS011;70703;55.652;37.710;2023-06-14T15:18:11;8.63;;;3.00;;
81231;SDS011;70703;55.652;37.710;2023-06-14T15:18:23;8.07;;;3.00;;
81231;SDS011;70703;55.652;37.710;2023-06-14T15:18:34;6.75;;;3.03;;
81231;SDS011;70703;55.652;37.710;2023-06-14T15:18:45;6.63;;;2.90;;
81231;SDS011;70703;55.652;37.710;2023-06-14T15:18:56;7.45;;;3.17;;
81231;SDS011;70703;55.652;37.710;2023-06-14T15:19:07;9.25;;;3.22;;
81231;SDS011;70703;55.652;37.710;2023-06-14T15:19:19;7.95;;;3.25;;
81231;SDS011;70703;55.652;37.710;2023-06-14T15:19:30;6.97;;;3.10;;
81231;SDS011;70703;55.652;37.710;2023-06-14T15:19:41;7.78;;;3.15;;
81231;SDS011;70703;55.652;37.710;2023-06-14T15:19:52;9.50;;;3.38;;
81231;SDS011;70703;55.652;37.710;2023-06-14T15:20:04;8.43;;;3.63;;
81231;SDS011;70703;55.652;37.710;2023-06-14T15:20:17;9.15;;;3.70;;
81231;SDS011;70703;55.652;37.710;2023-06-14T15:20:28;8.27;;;3.50;;
81231;SDS011;70703;55.652;37.710;2023-06-14T15:20:39;7.10;;;3.30;;
81231;SDS011;70703;55.652;37.710;2023-06-14T15:20:52;6.32;;;3.30;;
81231;SDS011;70703;55.652;37.710;2023-06-14T15:21:03;7.18;;;3.10;;
81231;SDS011;70703;55.652;37.710;2023-06-14T15:21:14;7.90;;;3.10;;
81231;SDS011;70703;55.652;37.710;2023-06-14T15:21:25;10.25;;;3.38;;
81231;SDS011;70703;55.652;37.710;2023-06-14T15:21:37;11.23;;;3.40;;
81231;SDS011;70703;55.652;37.710;2023-06-14T15:21:48;10.05;;;3.45;;
81231;SDS011;70703;55.652;37.710;2023-06-14T15:21:59;8.77;;;3.30;;
81231;SDS011;70703;55.652;37.710;2023-06-14T15:22:11;7.78;;;3.17;;
81231;SDS011;70703;55.652;37.710;2023-06-14T15:22:22;7.72;;;3.30;;
81231;SDS011;70703;55.652;37.710;2023-06-14T15:22:33;9.35;;;3.30;;
81231;SDS011;70703;55.652;37.710;2023-06-14T15:22:44;9.65;;;3.17;;
81231;SDS011;70703;55.652;37.710;2023-06-14T15:22:55;10.57;;;3.00;;
81231;SDS011;70703;55.652;37.710;2023-06-14T15:23:09;9.07;;;3.10;;
81231;SDS011;70703;55.652;37.710;2023-06-14T15:23:20;8.52;;;3.17;;
81231;SDS011;70703;55.652;37.710;2023-06-14T15:23:32;9.30;;;3.25;;
81231;SDS011;70703;55.652;37.710;2023-06-14T15:23:43;10.90;;;3.42;;
81231;SDS011;70703;55.652;37.710;2023-06-14T15:23:54;9.10;;;3.30;;
81231;SDS011;70703;55.652;37.710;2023-06-14T15:24:06;8.98;;;3.35;;
81231;SDS011;70703;55.652;37.710;2023-06-14T15:24:19;7.60;;;3.40;;
81231;SDS011;70703;55.652;37.710;2023-06-14T15:24:30;9.40;;;3.47;;
81231;SDS011;70703;55.652;37.710;2023-06-14T15:24:44;11.00;;;4.30;;
81231;SDS011;70703;55.652;37.710;2023-06-14T15:24:55;11.38;;;4.70;;
81231;SDS011;70703;55.652;37.710;2023-06-14T15:25:06;9.65;;;4.68;;
81231;SDS011;70703;55.652;37.710;2023-06-14T15:25:18;11.02;;;4.15;;
81231;SDS011;70703;55.652;37.710;2023-06-14T15:25:31;10.68;;;4.00;;
81231;SDS011;70703;55.652;37.710;2023-06-14T15:25:43;10.40;;;3.78;;
81231;SDS011;70703;55.652;37.710;2023-06-14T15:25:54;8.70;;;3.53;;
81231;SDS011;70703;55.652;37.710;2023-06-14T15:26:05;8.02;;;3.13;;
81231;SDS011;70703;55.652;37.710;2023-06-14T15:26:17;7.20;;;2.97;;
81231;SDS011;70703;55.652;37.710;2023-06-14T15:26:28;7.60;;;2.95;;
81231;SDS011;70703;55.652;37.710;2023-06-14T15:26:40;7.97;;;3.08;;
81231;SDS011;70703;55.652;37.710;2023-06-14T15:26:51;7.57;;;3.22;;
81231;SDS011;70703;55.652;37.710;2023-06-14T15:27:02;9.50;;;3.22;;
81231;SDS011;70703;55.652;37.710;2023-06-14T15:27:13;8.55;;;3.08;;
81231;SDS011;70703;55.652;37.710;2023-06-14T15:27:24;9.85;;;3.10;;
81231;SDS011;70703;55.652;37.710;2023-06-14T15:27:36;8.88;;;3.08;;
81231;SDS011;70703;55.652;37.710;2023-06-14T15:27:48;11.18;;;3.70;;
81231;SDS011;70703;55.652;37.710;2023-06-14T15:27:59;10.80;;;3.92;;
81231;SDS011;70703;55.652;37.710;2023-06-14T15:28:11;13.63;;;4.15;;
81231;SDS011;70703;55.652;37.710;2023-06-14T15:28:22;13.43;;;3.60;;
81231;SDS011;70703;55.652;37.710;2023-06-14T15:28:34;8.45;;;3.05;;
81231;SDS011;70703;55.652;37.710;2023-06-14T15:28:45;9.00;;;3.10;;
81231;SDS011;70703;55.652;37.710;2023-06-14T15:28:57;9.38;;;3.40;;
81231;SDS011;70703;55.652;37.710;2023-06-14T15:29:09;9.55;;;3.58;;
81231;SDS011;70703;55.652;37.710;2023-06-14T15:29:20;9.45;;;3.42;;
81231;SDS011;70703;55.652;37.710;2023-06-14T15:29:31;10.15;;;3.20;;
81231;SDS011;70703;55.652;37.710;2023-06-14T15:29:42;9.73;;;3.10;;
81231;SDS011;70703;55.652;37.710;2023-06-14T15:29:54;9.63;;;3.25;;
81231;SDS011;70703;55.652;37.710;2023-06-14T15:30:06;8.38;;;3.28;;
81231;SDS011;70703;55.652;37.710;2023-06-14T15:30:18;7.85;;;3.47;;
81231;SDS011;70703;55.652;37.710;2023-06-14T15:30:29;10.48;;;3.72;;
81231;SDS011;70703;55.652;37.710;2023-06-14T15:30:40;11.50;;;3.78;;
81231;SDS011;70703;55.652;37.710;2023-06-14T15:30:52;10.73;;;3.50;;
81231;SDS011;70703;55.652;37.710;2023-06-14T15:31:04;8.30;;;3.17;;
81231;SDS011;70703;55.652;37.710;2023-06-14T15:31:15;9.93;;;3.10;;
81231;SDS011;70703;55.652;37.710;2023-06-14T15:31:26;9.38;;;2.78;;
81231;SDS011;70703;55.652;37.710;2023-06-14T15:31:39;10.90;;;3.00;;
81231;SDS011;70703;55.652;37.710;2023-06-14T15:31:50;10.60;;;3.10;;
81231;SDS011;70703;55.652;37.710;2023-06-14T15:32:01;11.27;;;3.30;;
81231;SDS011;70703;55.652;37.710;2023-06-14T15:32:12;9.75;;;3.20;;
81231;SDS011;70703;55.652;37.710;2023-06-14T15:32:25;9.02;;;3.25;;
81231;SDS011;70703;55.652;37.710;2023-06-14T15:32:36;11.52;;;3.38;;
81231;SDS011;70703;55.652;37.710;2023-06-14T15:32:47;13.90;;;3.58;;
81231;SDS011;70703;55.652;37.710;2023-06-14T15:32:58;12.40;;;3.50;;
81231;SDS011;70703;55.652;37.710;2023-06-14T15:33:10;12.57;;;3.47;;
81231;SDS011;70703;55.652;37.710;2023-06-14T15:33:21;10.73;;;3.30;;
81231;SDS011;70703;55.652;37.710;2023-06-14T15:33:33;11.68;;;3.13;;
81231;SDS011;70703;55.652;37.710;2023-06-14T15:33:45;9.90;;;3.13;;
81231;SDS011;70703;55.652;37.710;2023-06-14T15:33:56;7.50;;;3.70;;
81231;SDS011;70703;55.652;37.710;2023-06-14T15:34:07;7.70;;;4.03;;
81231;SDS011;70703;55.652;37.710;2023-06-14T15:34:18;9.07;;;4.07;;
81231;SDS011;70703;55.652;37.710;2023-06-14T15:34:29;7.78;;;3.67;;
81231;SDS011;70703;55.652;37.710;2023-06-14T15:34:40;7.25;;;3.65;;
81231;SDS011;70703;55.652;37.710;2023-06-14T15:34:52;8.23;;;3.70;;
81231;SDS011;70703;55.652;37.710;2023-06-14T15:35:04;8.98;;;3.45;;
81231;SDS011;70703;55.652;37.710;2023-06-14T15:35:16;8.10;;;3.10;;
81231;SDS011;70703;55.652;37.710;2023-06-14T15:35:28;6.10;;;2.92;;
81231;SDS011;70703;55.652;37.710;2023-06-14T15:35:39;7.40;;;3.00;;
81231;SDS011;70703;55.652;37.710;2023-06-14T15:35:50;8.88;;;3.03;;
81231;SDS011;70703;55.652;37.710;2023-06-14T15:36:03;9.63;;;3.00;;
81231;SDS011;70703;55.652;37.710;2023-06-14T15:36:15;8.95;;;3.00;;
81231;SDS011;70703;55.652;37.710;2023-06-14T15:36:26;11.25;;;5.57;;
81231;SDS011;70703;55.652;37.710;2023-06-14T15:36:37;10.93;;;7.65;;
81231;SDS011;70703;55.652;37.710;2023-06-14T15:36:48;10.55;;;8.32;;
81231;SDS011;70703;55.652;37.710;2023-06-14T15:37:00;10.27;;;5.38;;
81231;SDS011;70703;55.652;37.710;2023-06-14T15:37:12;10.63;;;4.38;;
81231;SDS011;70703;55.652;37.710;2023-06-14T15:37:24;8.77;;;3.85;;
81231;SDS011;70703;55.652;37.710;2023-06-14T15:37:35;9.25;;;3.58;;
81231;SDS011;70703;55.652;37.710;2023-06-14T15:37:46;8.00;;;3.50;;
81231;SDS011;70703;55.652;37.710;2023-06-14T15:37:58;8.13;;;3.63;;
81231;SDS011;70703;55.652;37.710;2023-06-14T15:38:09;7.40;;;3.45;;
81231;SDS011;70703;55.652;37.710;2023-06-14T15:38:21;7.88;;;3.38;;
81231;SDS011;70703;55.652;37.710;2023-06-14T15:38:32;9.30;;;3.40;;
81231;SDS011;70703;55.652;37.710;2023-06-14T15:38:44;7.88;;;3.58;;
81231;SDS011;70703;55.652;37.710;2023-06-14T15:38:55;6.05;;;3.33;;
81231;SDS011;70703;55.652;37.710;2023-06-14T15:39:06;5.60;;;2.90;;
81231;SDS011;70703;55.652;37.710;2023-06-14T15:39:17;5.53;;;2.80;;
81231;SDS011;70703;55.652;37.710;2023-06-14T15:39:28;5.75;;;2.92;;
81231;SDS011;70703;55.652;37.710;2023-06-14T15:39:42;7.00;;;2.88;;
81231;SDS011;70703;55.652;37.710;2023-06-14T15:39:55;7.15;;;2.95;;
81231;SDS011;70703;55.652;37.710;2023-06-14T15:40:07;6.43;;;2.90;;
81231;SDS011;70703;55.652;37.710;2023-06-14T15:40:19;7.60;;;2.92;;
81231;SDS011;70703;55.652;37.710;2023-06-14T15:40:30;10.00;;;3.22;;
81231;SDS011;70703;55.652;37.710;2023-06-14T15:40:41;9.38;;;3.45;;
81231;SDS011;70703;55.652;37.710;2023-06-14T15:40:56;9.05;;;3.50;;
81231;SDS011;70703;55.652;37.710;2023-06-14T15:41:07;10.25;;;3.30;;
81231;SDS011;70703;55.652;37.710;2023-06-14T15:41:18;10.25;;;3.15;;
81231;SDS011;70703;55.652;37.710;2023-06-14T15:41:29;10.00;;;3.10;;
81231;SDS011;70703;55.652;37.710;2023-06-14T15:41:40;9.45;;;3.13;;
81231;SDS011;70703;55.652;37.710;2023-06-14T15:41:51;9.40;;;3.30;;
81231;SDS011;70703;55.652;37.710;2023-06-14T15:42:02;9.63;;;3.42;;
81231;SDS011;70703;55.652;37.710;2023-06-14T15:42:16;10.32;;;3.28;;
81231;SDS011;70703;55.652;37.710;2023-06-14T15:42:27;10.35;;;3.30;;
81231;SDS011;70703;55.652;37.710;2023-06-14T15:42:38;9.93;;;3.30;;
81231;SDS011;70703;55.652;37.710;2023-06-14T15:42:49;9.55;;;3.20;;
81231;SDS011;70703;55.652;37.710;2023-06-14T15:43:00;9.88;;;3.33;;
81231;SDS011;70703;55.652;37.710;2023-06-14T15:43:11;11.20;;;3.42;;
81231;SDS011;70703;55.652;37.710;2023-06-14T15:43:23;8.63;;;3.42;;
81231;SDS011;70703;55.652;37.710;2023-06-14T15:43:37;7.22;;;3.30;;
81231;SDS011;70703;55.652;37.710;2023-06-14T15:43:48;11.68;;;3.40;;
81231;SDS011;70703;55.652;37.710;2023-06-14T15:44:02;14.90;;;3.47;;
81231;SDS011;70703;55.652;37.710;2023-06-14T15:44:13;14.80;;;3.47;;
81231;SDS011;70703;55.652;37.710;2023-06-14T15:44:25;10.95;;;3.53;;
81231;SDS011;70703;55.652;37.710;2023-06-14T15:44:38;9.32;;;3.45;;
81231;SDS011;70703;55.652;37.710;2023-06-14T15:44:49;9.57;;;3.40;;
81231;SDS011;70703;55.652;37.710;2023-06-14T15:45:00;8.55;;;3.30;;
81231;SDS011;70703;55.652;37.710;2023-06-14T15:45:11;8.85;;;3.50;;
81231;SDS011;70703;55.652;37.710;2023-06-14T15:45:22;7.53;;;3.33;;
81231;SDS011;70703;55.652;37.710;2023-06-14T15:45:33;8.80;;;3.42;;
81231;SDS011;70703;55.652;37.710;2023-06-14T15:45:47;8.95;;;3.30;;
81231;SDS011;70703;55.652;37.710;2023-06-14T15:45:58;10.40;;;3.30;;
81231;SDS011;70703;55.652;37.710;2023-06-14T15:46:09;9.05;;;3.25;;
81231;SDS011;70703;55.652;37.710;2023-06-14T15:46:21;9.13;;;3.30;;
81231;SDS011;70703;55.652;37.710;2023-06-14T15:46:32;8.30;;;3.40;;
81231;SDS011;70703;55.652;37.710;2023-06-14T15:46:43;9.15;;;3.53;;
81231;SDS011;70703;55.652;37.710;2023-06-14T15:46:54;9.95;;;3.45;;
81231;SDS011;70703;55.652;37.710;2023-06-14T15:47:06;9.85;;;3.55;;
81231;SDS011;70703;55.652;37.710;2023-06-14T15:47:19;11.25;;;3.85;;
81231;SDS011;70703;55.652;37.710;2023-06-14T15:47:30;9.02;;;3.95;;
81231;SDS011;70703;55.652;37.710;2023-06-14T15:47:41;8.68;;;3.80;;
81231;SDS011;70703;55.652;37.710;2023-06-14T15:47:53;7.22;;;3.35;;
81231;SDS011;70703;55.652;37.710;2023-06-14T15:48:04;7.93;;;3.33;;
81231;SDS011;70703;55.652;37.710;2023-06-14T15:48:18;8.48;;;3.30;;
81231;SDS011;70703;55.652;37.710;2023-06-14T15:48:29;8.73;;;3.22;;